createdAt,value
2018-03-18T00:00:43.101Z,20.30
2018-03-18T00:01:43.242Z,21.10
2018-03-18T00:02:43.382Z,19.50
2018-03-18T00:03:43.523Z,21.60
2018-03-18T00:04:43.665Z,20.00
2018-03-18T00:05:43.808Z,19.70
2018-03-18T00:06:43.945Z,22.00
2018-03-18T00:07:44.085Z,19.90
2018-03-18T00:08:44.224Z,20.90
2018-03-18T00:09:44.366Z,21.00
2018-03-18T00:10:44.508Z,20.80
2018-03-18T00:11:44.647Z,22.70
2018-03-18T00:12:44.790Z,19.80
2018-03-18T00:13:44.930Z,19.80
2018-03-18T00:14:45.076Z,21.00
2018-03-18T00:15:45.210Z,20.50
2018-03-18T00:16:45.353Z,19.30
2018-03-18T00:17:45.493Z,19.80
2018-03-18T00:18:45.634Z,24.60
2018-03-18T00:19:45.775Z,18.90
2018-03-18T00:20:45.919Z,19.40
2018-03-18T00:21:46.064Z,21.40
2018-03-18T00:22:46.206Z,19.40
2018-03-18T00:23:46.346Z,19.70
2018-03-18T00:24:46.488Z,20.00
2018-03-18T00:25:46.639Z,20.00
2018-03-18T00:26:46.760Z,20.00
2018-03-18T00:27:46.901Z,19.20
2018-03-18T00:28:47.042Z,20.10
2018-03-18T00:29:47.185Z,18.70
2018-03-18T00:30:47.331Z,19.60
2018-03-18T00:31:47.467Z,18.30
2018-03-18T00:32:47.606Z,18.10
2018-03-18T00:33:47.748Z,18.90
2018-03-18T00:34:47.888Z,19.10
2018-03-18T00:35:48.030Z,18.50
2018-03-18T00:36:48.170Z,18.30
2018-03-18T00:37:48.315Z,18.80
2018-03-18T00:38:48.450Z,20.00
2018-03-18T00:39:48.595Z,19.50
2018-03-18T00:40:48.732Z,20.60
2018-03-18T00:41:48.874Z,18.60
2018-03-18T00:42:49.017Z,19.10
2018-03-18T00:43:49.164Z,18.60
2018-03-18T00:44:49.300Z,17.10
2018-03-18T00:45:49.440Z,19.80
2018-03-18T00:46:49.579Z,19.10
2018-03-18T00:47:49.721Z,17.70
2018-03-18T00:48:49.859Z,18.80
2018-03-18T00:49:50.005Z,21.80
2018-03-18T00:50:50.142Z,21.30
2018-03-18T00:51:50.283Z,19.40
2018-03-18T00:52:50.425Z,18.40
2018-03-18T00:53:50.564Z,21.10
2018-03-18T00:54:50.707Z,19.80
2018-03-18T00:55:50.847Z,21.00
2018-03-18T00:56:50.988Z,18.70
2018-03-18T00:57:51.129Z,19.50
2018-03-18T00:58:51.268Z,19.30
2018-03-18T00:59:51.409Z,20.40
2018-03-18T01:00:51.551Z,18.90
2018-03-18T01:01:51.694Z,19.80
2018-03-18T01:02:51.829Z,17.70
2018-03-18T01:03:51.970Z,18.50
2018-03-18T01:04:52.109Z,16.30
2018-03-18T01:05:52.251Z,19.40
2018-03-18T01:06:52.393Z,19.30
2018-03-18T01:07:52.540Z,20.40
2018-03-18T01:08:52.675Z,18.10
2018-03-18T01:09:52.814Z,18.10
2018-03-18T01:10:52.953Z,20.90
2018-03-18T01:11:53.096Z,17.20
2018-03-18T01:12:53.234Z,18.60
2018-03-18T01:13:53.376Z,16.90
2018-03-18T01:14:53.516Z,18.20
2018-03-18T01:15:53.656Z,17.90
2018-03-18T01:16:53.797Z,17.30
2018-03-18T01:17:53.941Z,17.50
2018-03-18T01:18:54.081Z,17.10
2018-03-18T01:19:54.219Z,19.60
2018-03-18T01:20:54.361Z,16.60
2018-03-18T01:21:54.503Z,18.00
2018-03-18T01:22:54.640Z,18.00
2018-03-18T01:23:54.783Z,16.70
2018-03-18T01:24:54.923Z,17.00
2018-03-18T01:25:55.062Z,17.40
2018-03-18T01:26:55.210Z,16.70
2018-03-18T01:27:55.345Z,16.60
2018-03-18T01:28:55.485Z,18.70
2018-03-18T01:29:55.632Z,18.60
2018-03-18T01:30:55.772Z,16.50
2018-03-18T01:31:55.911Z,18.60
2018-03-18T01:32:56.049Z,18.60
2018-03-18T01:33:56.193Z,17.70
2018-03-18T01:34:56.334Z,17.00
2018-03-18T01:35:56.476Z,21.70
2018-03-18T01:36:56.616Z,19.40
2018-03-18T01:37:56.761Z,17.00
2018-03-18T01:38:56.896Z,17.90
2018-03-18T01:39:57.040Z,15.80
2018-03-18T01:40:57.179Z,18.50
2018-03-18T01:41:57.319Z,20.40
2018-03-18T01:42:57.460Z,16.80
2018-03-18T01:43:57.602Z,18.70
2018-03-18T01:44:57.743Z,17.80
2018-03-18T01:45:57.884Z,16.40
2018-03-18T01:46:58.030Z,18.20
2018-03-18T01:47:58.169Z,18.40
2018-03-18T01:48:58.313Z,17.00
2018-03-18T01:49:58.453Z,17.40
2018-03-18T01:50:58.596Z,16.40
2018-03-18T01:51:58.738Z,17.00
2018-03-18T01:52:58.877Z,18.60
2018-03-18T01:53:59.015Z,19.10
2018-03-18T01:54:59.156Z,18.60
2018-03-18T01:55:59.303Z,19.80
2018-03-18T01:56:59.440Z,18.00
2018-03-18T01:57:59.579Z,17.80
2018-03-18T01:58:59.720Z,16.90
2018-03-18T01:59:59.858Z,17.80
2018-03-18T02:01:00.002Z,18.10
2018-03-18T02:02:00.144Z,18.40
2018-03-18T02:03:00.287Z,17.60
2018-03-18T02:04:00.424Z,17.80
2018-03-18T02:05:00.565Z,17.80
2018-03-18T02:06:00.705Z,17.80
2018-03-18T02:07:00.844Z,19.20
2018-03-18T02:08:00.986Z,18.60
2018-03-18T02:09:01.126Z,19.70
2018-03-18T02:10:01.272Z,16.60
2018-03-18T02:11:01.409Z,18.00
2018-03-18T02:12:01.552Z,18.90
2018-03-18T02:13:01.696Z,18.80
2018-03-18T02:14:01.836Z,17.00
2018-03-18T02:15:01.979Z,17.10
2018-03-18T02:16:02.116Z,16.50
2018-03-18T02:17:02.263Z,15.50
2018-03-18T02:18:02.401Z,17.50
2018-03-18T02:19:02.564Z,17.30
2018-03-18T02:20:02.682Z,19.60
2018-03-18T02:21:02.823Z,18.20
2018-03-18T02:22:02.962Z,18.20
2018-03-18T02:23:03.103Z,15.60
2018-03-18T02:24:03.246Z,16.60
2018-03-18T02:25:03.387Z,16.80
2018-03-18T02:26:03.529Z,18.50
2018-03-18T02:27:03.669Z,17.70
2018-03-18T02:28:03.809Z,16.70
2018-03-18T02:29:03.953Z,20.50
2018-03-18T02:30:04.103Z,18.60
2018-03-18T02:31:04.233Z,20.40
2018-03-18T02:32:04.373Z,16.90
2018-03-18T02:33:04.513Z,20.00
2018-03-18T02:34:04.660Z,18.00
2018-03-18T02:35:04.792Z,17.70
2018-03-18T02:36:04.935Z,19.90
2018-03-18T02:37:05.082Z,18.60
2018-03-18T02:38:05.216Z,17.90
2018-03-18T02:39:05.357Z,16.50
2018-03-18T02:40:05.497Z,16.80
2018-03-18T02:41:05.640Z,19.20
2018-03-18T02:42:05.796Z,17.00
2018-03-18T02:43:05.945Z,16.80
2018-03-18T02:44:06.056Z,19.10
2018-03-18T02:45:06.199Z,18.40
2018-03-18T02:46:06.337Z,17.70
2018-03-18T02:47:06.477Z,17.70
2018-03-18T02:48:06.620Z,19.60
2018-03-18T02:49:06.759Z,20.30
2018-03-18T02:50:06.911Z,19.00
2018-03-18T02:51:07.044Z,18.30
2018-03-18T02:52:07.186Z,18.20
2018-03-18T02:53:07.328Z,18.60
2018-03-18T02:54:07.471Z,19.90
2018-03-18T02:55:07.624Z,19.40
2018-03-18T02:56:07.752Z,17.90
2018-03-18T02:57:07.892Z,17.60
2018-03-18T02:58:08.035Z,17.70
2018-03-18T02:59:08.173Z,18.50
2018-03-18T03:00:08.311Z,17.70
2018-03-18T03:01:08.454Z,19.70
2018-03-18T03:02:08.598Z,17.40
2018-03-18T03:03:08.736Z,20.60
2018-03-18T03:04:08.873Z,17.10
2018-03-18T03:05:09.013Z,20.10
2018-03-18T03:06:09.156Z,19.40
2018-03-18T03:07:09.295Z,17.60
2018-03-18T03:08:09.439Z,19.60
2018-03-18T03:09:09.579Z,17.10
2018-03-18T03:10:09.718Z,16.50
2018-03-18T03:11:09.859Z,18.20
2018-03-18T03:12:09.999Z,18.20
2018-03-18T03:13:10.143Z,18.10
2018-03-18T03:14:10.283Z,17.10
2018-03-18T03:15:10.426Z,18.00
2018-03-18T03:16:10.566Z,20.30
2018-03-18T03:17:10.707Z,17.50
2018-03-18T03:18:10.849Z,18.50
2018-03-18T03:19:10.990Z,18.00
2018-03-18T03:20:11.131Z,16.40
2018-03-18T03:21:11.270Z,18.40
2018-03-18T03:22:11.411Z,19.40
2018-03-18T03:23:11.550Z,18.10
2018-03-18T03:24:11.686Z,18.00
2018-03-18T03:25:11.824Z,16.50
2018-03-18T03:26:11.971Z,17.60
2018-03-18T03:27:12.110Z,17.00
2018-03-18T03:28:12.255Z,18.60
2018-03-18T03:29:12.395Z,17.20
2018-03-18T03:30:12.531Z,15.80
2018-03-18T03:31:12.691Z,17.00
2018-03-18T03:32:12.850Z,18.00
2018-03-18T03:33:12.955Z,15.80
2018-03-18T03:34:13.114Z,18.50
2018-03-18T03:35:13.240Z,22.50
2018-03-18T03:36:13.376Z,16.00
2018-03-18T03:37:13.533Z,17.10
2018-03-18T03:38:13.663Z,19.20
2018-03-18T03:39:13.802Z,17.70
2018-03-18T03:40:13.945Z,17.80
2018-03-18T03:41:14.085Z,19.30
2018-03-18T03:42:14.229Z,17.90
2018-03-18T03:43:14.368Z,17.90
2018-03-18T03:44:14.510Z,18.50
2018-03-18T03:45:14.653Z,18.10
2018-03-18T03:46:14.790Z,19.40
2018-03-18T03:47:14.931Z,16.70
2018-03-18T03:48:15.072Z,18.60
2018-03-18T03:49:15.212Z,17.00
2018-03-18T03:50:15.352Z,19.60
2018-03-18T03:51:15.498Z,19.60
2018-03-18T03:52:15.634Z,17.40
2018-03-18T03:53:15.775Z,18.10
2018-03-18T03:54:15.913Z,18.00
2018-03-18T03:55:16.060Z,16.40
2018-03-18T03:56:16.199Z,17.50
2018-03-18T03:57:16.338Z,20.00
2018-03-18T03:58:16.479Z,19.20
2018-03-18T03:59:16.623Z,18.10
2018-03-18T04:00:16.762Z,17.70
2018-03-18T04:01:16.901Z,17.40
2018-03-18T04:02:17.049Z,17.80
2018-03-18T04:03:17.183Z,17.80
2018-03-18T04:04:17.321Z,17.90
2018-03-18T04:05:17.462Z,19.10
2018-03-18T04:06:17.601Z,19.20
2018-03-18T04:07:17.742Z,17.60
2018-03-18T04:08:17.886Z,19.20
2018-03-18T04:09:18.025Z,19.00
2018-03-18T04:10:18.165Z,16.80
2018-03-18T04:11:18.306Z,19.00
2018-03-18T04:12:18.445Z,17.80
2018-03-18T04:13:18.587Z,16.10
2018-03-18T04:14:18.728Z,19.40
2018-03-18T04:15:18.868Z,16.00
2018-03-18T04:16:19.002Z,15.70
2018-03-18T04:17:19.191Z,17.70
2018-03-18T04:18:19.296Z,18.20
2018-03-18T04:19:19.434Z,17.20
2018-03-18T04:20:19.574Z,20.90
2018-03-18T04:21:19.717Z,17.00
2018-03-18T04:22:19.857Z,18.20
2018-03-18T04:23:19.998Z,16.80
2018-03-18T04:24:20.134Z,20.90
2018-03-18T04:25:20.280Z,17.30
2018-03-18T04:26:20.418Z,16.40
2018-03-18T04:27:20.560Z,20.80
2018-03-18T04:28:20.701Z,21.60
2018-03-18T04:29:20.838Z,19.30
2018-03-18T04:30:20.980Z,17.30
2018-03-18T04:31:21.121Z,18.20
2018-03-18T04:32:21.260Z,17.50
2018-03-18T04:33:21.401Z,19.10
2018-03-18T04:34:21.539Z,20.00
2018-03-18T04:35:21.680Z,19.60
2018-03-18T04:36:21.822Z,19.60
2018-03-18T04:37:21.962Z,18.50
2018-03-18T04:38:22.103Z,19.90
2018-03-18T04:39:22.243Z,17.60
2018-03-18T04:40:22.382Z,16.90
2018-03-18T04:41:22.522Z,17.40
2018-03-18T04:42:22.662Z,19.20
2018-03-18T04:43:22.802Z,18.90
2018-03-18T04:44:22.945Z,19.60
2018-03-18T04:45:23.083Z,21.30
2018-03-18T04:46:23.221Z,19.70
2018-03-18T04:47:23.361Z,18.00
2018-03-18T04:48:23.502Z,16.90
2018-03-18T04:49:23.641Z,17.10
2018-03-18T04:50:23.781Z,17.80
2018-03-18T04:51:23.927Z,21.90
2018-03-18T04:52:24.065Z,20.00
2018-03-18T04:53:24.204Z,20.80
2018-03-18T04:54:24.347Z,18.00
2018-03-18T04:55:24.488Z,20.20
2018-03-18T04:56:24.638Z,17.30
2018-03-18T04:57:24.775Z,21.50
2018-03-18T04:58:24.911Z,16.60
2018-03-18T04:59:25.050Z,17.80
2018-03-18T05:00:25.193Z,17.80
2018-03-18T05:01:25.331Z,17.30
2018-03-18T05:02:25.474Z,16.50
2018-03-18T05:03:25.615Z,18.00
2018-03-18T05:04:25.757Z,18.10
2018-03-18T05:05:25.898Z,18.20
2018-03-18T05:06:26.039Z,16.30
2018-03-18T05:07:26.185Z,18.80
2018-03-18T05:08:26.321Z,16.80
2018-03-18T05:09:26.465Z,19.30
2018-03-18T05:10:26.603Z,19.60
2018-03-18T05:11:26.742Z,20.30
2018-03-18T05:12:26.887Z,18.60
2018-03-18T05:13:27.017Z,19.30
2018-03-18T05:14:27.180Z,21.30
2018-03-18T05:15:27.325Z,20.30
2018-03-18T05:16:27.468Z,19.30
2018-03-18T05:17:27.608Z,18.30
2018-03-18T05:18:27.775Z,19.00
2018-03-18T05:19:27.891Z,19.20
2018-03-18T05:20:28.032Z,19.20
2018-03-18T05:21:28.173Z,19.30
2018-03-18T05:22:28.314Z,17.60
2018-03-18T05:23:28.451Z,20.10
2018-03-18T05:24:28.586Z,19.50
2018-03-18T05:25:28.727Z,20.60
2018-03-18T05:26:28.870Z,19.60
2018-03-18T05:27:29.011Z,20.50
2018-03-18T05:28:29.151Z,18.80
2018-03-18T05:29:29.308Z,17.50
2018-03-18T05:30:29.450Z,18.90
2018-03-18T05:31:29.590Z,19.80
2018-03-18T05:32:29.728Z,21.90
2018-03-18T05:33:29.875Z,18.80
2018-03-18T05:34:30.008Z,16.10
2018-03-18T05:35:30.148Z,17.50
2018-03-18T05:36:30.290Z,17.20
2018-03-18T05:37:30.430Z,18.20
2018-03-18T05:38:30.570Z,19.80
2018-03-18T05:39:30.710Z,19.00
2018-03-18T05:40:30.870Z,21.40
2018-03-18T05:41:30.987Z,19.10
2018-03-18T05:42:31.127Z,18.50
2018-03-18T05:43:31.270Z,22.20
2018-03-18T05:44:31.414Z,20.80
2018-03-18T05:45:31.555Z,19.00
2018-03-18T05:46:31.699Z,19.80
2018-03-18T05:47:31.835Z,19.70
2018-03-18T05:48:31.977Z,18.50
2018-03-18T05:49:32.121Z,19.90
2018-03-18T05:50:32.265Z,18.10
2018-03-18T05:51:32.404Z,18.40
2018-03-18T05:52:32.546Z,19.20
2018-03-18T05:53:32.688Z,22.50
2018-03-18T05:54:32.827Z,19.00
2018-03-18T05:55:32.970Z,19.10
2018-03-18T05:56:33.110Z,18.40
2018-03-18T05:57:33.248Z,21.10
2018-03-18T05:58:33.388Z,19.40
2018-03-18T05:59:33.530Z,20.70
2018-03-18T06:00:33.672Z,20.60
2018-03-18T06:01:33.809Z,18.60
2018-03-18T06:02:33.949Z,18.80
2018-03-18T06:03:34.088Z,20.70
2018-03-18T06:04:34.229Z,17.20
2018-03-18T06:05:34.368Z,20.00
2018-03-18T06:06:34.545Z,20.00
2018-03-18T06:07:34.651Z,20.30
2018-03-18T06:08:34.794Z,18.80
2018-03-18T06:09:34.932Z,19.20
2018-03-18T06:10:35.073Z,20.20
2018-03-18T06:11:35.213Z,17.20
2018-03-18T06:12:35.355Z,21.20
2018-03-18T06:13:35.499Z,18.70
2018-03-18T06:14:35.639Z,20.70
2018-03-18T06:15:35.781Z,22.10
2018-03-18T06:16:35.920Z,21.00
2018-03-18T06:17:36.062Z,19.00
2018-03-18T06:18:36.201Z,17.70
2018-03-18T06:19:36.344Z,18.90
2018-03-18T06:20:36.485Z,19.00
2018-03-18T06:21:36.625Z,18.30
2018-03-18T06:22:36.769Z,19.80
2018-03-18T06:23:36.910Z,19.30
2018-03-18T06:24:37.052Z,18.40
2018-03-18T06:25:37.197Z,18.80
2018-03-18T06:26:37.337Z,18.20
2018-03-18T06:27:37.479Z,18.00
2018-03-18T06:28:37.623Z,18.90
2018-03-18T06:29:37.762Z,17.40
2018-03-18T06:30:37.906Z,19.70
2018-03-18T06:31:38.045Z,18.10
2018-03-18T06:32:38.184Z,20.20
2018-03-18T06:33:38.324Z,19.20
2018-03-18T06:34:38.464Z,19.20
2018-03-18T06:35:38.605Z,19.90
2018-03-18T06:36:38.745Z,22.00
2018-03-18T06:37:38.885Z,17.40
2018-03-18T06:38:39.027Z,18.20
2018-03-18T06:39:39.168Z,18.40
2018-03-18T06:40:39.308Z,19.60
2018-03-18T06:41:39.453Z,19.00
2018-03-18T06:42:39.592Z,17.10
2018-03-18T06:43:39.736Z,17.10
2018-03-18T06:44:39.877Z,18.50
2018-03-18T06:45:40.018Z,19.30
2018-03-18T06:46:40.165Z,17.40
2018-03-18T06:47:40.297Z,19.00
2018-03-18T06:48:40.439Z,20.10
2018-03-18T06:49:40.581Z,16.80
2018-03-18T06:50:40.722Z,20.70
2018-03-18T06:51:40.869Z,19.50
2018-03-18T06:52:41.003Z,18.90
2018-03-18T06:53:41.145Z,19.60
2018-03-18T06:54:41.283Z,20.20
2018-03-18T06:55:41.425Z,17.30
2018-03-18T06:56:41.569Z,19.30
2018-03-18T06:57:41.707Z,18.30
2018-03-18T06:58:41.846Z,18.40
2018-03-18T06:59:41.988Z,19.00
2018-03-18T07:00:42.130Z,18.50
2018-03-18T07:01:42.272Z,18.00
2018-03-18T07:02:42.416Z,16.50
2018-03-18T07:03:42.556Z,18.90
2018-03-18T07:04:42.699Z,20.60
2018-03-18T07:05:42.836Z,21.20
2018-03-18T07:06:43.012Z,19.90
2018-03-18T07:07:43.130Z,19.50
2018-03-18T07:08:43.284Z,20.30
2018-03-18T07:09:43.415Z,32.10
2018-03-18T07:10:43.549Z,19.80
2018-03-18T07:11:43.690Z,18.50
2018-03-18T07:12:43.834Z,18.50
2018-03-18T07:13:43.972Z,19.90
2018-03-18T07:14:44.114Z,21.30
2018-03-18T07:15:44.254Z,18.30
2018-03-18T07:16:44.399Z,22.50
2018-03-18T07:17:44.544Z,17.40
2018-03-18T07:18:44.682Z,19.10
2018-03-18T07:19:44.821Z,16.70
2018-03-18T07:20:44.967Z,18.00
2018-03-18T07:21:45.112Z,20.60
2018-03-18T07:22:45.250Z,17.30
2018-03-18T07:23:45.385Z,20.80
2018-03-18T07:24:45.527Z,17.90
2018-03-18T07:25:45.671Z,18.50
2018-03-18T07:26:45.809Z,16.90
2018-03-18T07:27:45.950Z,18.90
2018-03-18T07:28:46.090Z,16.40
2018-03-18T07:29:46.231Z,18.20
2018-03-18T07:30:46.370Z,17.70
2018-03-18T07:31:46.523Z,17.40
2018-03-18T07:32:46.655Z,16.10
2018-03-18T07:33:46.800Z,16.20
2018-03-18T07:34:46.938Z,16.00
2018-03-18T07:35:47.081Z,15.50
2018-03-18T07:36:47.245Z,18.10
2018-03-18T07:37:47.362Z,18.60
2018-03-18T07:38:47.537Z,16.40
2018-03-18T07:39:47.643Z,16.90
2018-03-18T07:40:47.785Z,18.10
2018-03-18T07:41:47.928Z,18.90
2018-03-18T07:42:48.068Z,17.70
2018-03-18T07:43:48.223Z,19.90
2018-03-18T07:44:48.364Z,18.00
2018-03-18T07:45:48.493Z,15.40
2018-03-18T07:46:48.631Z,16.10
2018-03-18T07:47:48.772Z,14.30
2018-03-18T07:48:48.913Z,18.00
2018-03-18T07:49:49.054Z,16.10
2018-03-18T07:50:49.194Z,16.30
2018-03-18T07:51:49.336Z,14.80
2018-03-18T07:52:49.477Z,17.50
2018-03-18T07:53:49.621Z,16.10
2018-03-18T07:54:49.762Z,15.10
2018-03-18T07:55:49.902Z,16.70
2018-03-18T07:56:50.044Z,17.10
2018-03-18T07:57:50.186Z,16.90
2018-03-18T07:58:50.329Z,17.90
2018-03-18T07:59:50.468Z,15.70
2018-03-18T08:00:50.612Z,18.40
2018-03-18T08:01:50.752Z,16.70
2018-03-18T08:02:50.894Z,18.30
2018-03-18T08:03:51.035Z,17.60
2018-03-18T08:04:51.177Z,14.90
2018-03-18T08:05:51.320Z,16.70
2018-03-18T08:06:51.463Z,17.40
2018-03-18T08:07:51.605Z,17.20
2018-03-18T08:08:51.748Z,14.20
2018-03-18T08:09:51.889Z,14.30
2018-03-18T08:10:52.030Z,16.00
2018-03-18T08:11:52.173Z,17.10
2018-03-18T08:12:52.316Z,17.30
2018-03-18T08:13:52.468Z,14.60
2018-03-18T08:14:52.608Z,17.90
2018-03-18T08:15:52.748Z,20.10
2018-03-18T08:16:52.895Z,18.90
2018-03-18T08:17:53.039Z,17.10
2018-03-18T08:18:53.180Z,14.60
2018-03-18T08:19:53.323Z,16.40
2018-03-18T08:20:53.486Z,18.10
2018-03-18T08:21:53.611Z,17.20
2018-03-18T08:22:53.750Z,21.50
2018-03-18T08:23:53.893Z,18.10
2018-03-18T08:24:54.032Z,16.20
2018-03-18T08:25:54.173Z,15.30
2018-03-18T08:26:54.316Z,24.70
2018-03-18T08:27:54.468Z,16.30
2018-03-18T08:28:54.627Z,15.30
2018-03-18T08:29:54.738Z,16.90
2018-03-18T08:30:54.886Z,16.50
2018-03-18T08:31:55.028Z,15.90
2018-03-18T08:32:55.169Z,17.80
2018-03-18T08:33:55.456Z,18.30
2018-03-18T08:34:55.401Z,16.50
2018-03-18T08:35:55.565Z,15.60
2018-03-18T08:36:55.687Z,15.80
2018-03-18T08:37:55.829Z,15.50
2018-03-18T08:38:55.971Z,16.60
2018-03-18T08:39:56.114Z,16.20
2018-03-18T08:40:56.265Z,17.40
2018-03-18T08:41:56.400Z,16.20
2018-03-18T08:42:56.540Z,15.50
2018-03-18T08:43:56.685Z,14.80
2018-03-18T08:44:56.830Z,14.80
2018-03-18T08:45:56.971Z,16.10
2018-03-18T08:46:57.124Z,17.60
2018-03-18T08:47:57.268Z,22.70
2018-03-18T08:48:57.421Z,23.10
2018-03-18T08:49:57.560Z,15.90
2018-03-18T08:50:57.699Z,16.70
2018-03-18T08:51:57.840Z,15.70
2018-03-18T08:52:57.982Z,16.50
2018-03-18T08:53:58.125Z,15.10
2018-03-18T08:54:58.268Z,15.10
2018-03-18T08:55:58.411Z,14.00
2018-03-18T08:56:58.562Z,13.30
2018-03-18T08:57:58.701Z,14.60
2018-03-18T08:58:58.845Z,16.80
2018-03-18T08:59:58.994Z,13.50
2018-03-18T09:00:59.132Z,15.20
2018-03-18T09:01:59.275Z,16.30
2018-03-18T09:02:59.418Z,14.70
2018-03-18T09:03:59.562Z,13.30
2018-03-18T09:04:59.702Z,15.50
2018-03-18T09:05:59.846Z,14.90
2018-03-18T09:06:59.987Z,14.70
2018-03-18T09:08:00.129Z,13.90
2018-03-18T09:09:00.271Z,13.40
2018-03-18T09:10:00.417Z,13.50
2018-03-18T09:11:00.560Z,14.50
2018-03-18T09:12:00.703Z,15.00
2018-03-18T09:13:00.845Z,13.10
2018-03-18T09:14:00.989Z,14.60
2018-03-18T09:15:01.133Z,14.50
2018-03-18T09:16:01.280Z,15.30
2018-03-18T09:17:01.418Z,19.20
2018-03-18T09:18:01.560Z,13.80
2018-03-18T09:19:01.707Z,15.50
2018-03-18T09:20:01.852Z,14.30
2018-03-18T09:21:01.994Z,12.00
2018-03-18T09:22:02.137Z,13.60
2018-03-18T09:23:02.331Z,12.70
2018-03-18T09:24:02.429Z,13.20
2018-03-18T09:25:02.572Z,15.70
2018-03-18T09:26:02.718Z,14.90
2018-03-18T09:27:02.850Z,16.20
2018-03-18T09:28:02.998Z,14.40
2018-03-18T09:29:03.140Z,14.00
2018-03-18T09:30:03.275Z,13.30
2018-03-18T09:31:03.425Z,14.50
2018-03-18T09:32:03.564Z,13.50
2018-03-18T09:33:03.706Z,14.70
2018-03-18T09:34:03.848Z,15.60
2018-03-18T09:35:03.992Z,13.60
2018-03-18T09:36:04.135Z,14.80
2018-03-18T09:37:04.321Z,15.30
2018-03-18T09:38:04.438Z,13.50
2018-03-18T09:39:04.583Z,13.50
2018-03-18T09:40:04.722Z,13.20
2018-03-18T09:41:04.869Z,13.70
2018-03-18T09:42:05.009Z,13.10
2018-03-18T09:43:05.187Z,12.60
2018-03-18T09:44:05.290Z,13.00
2018-03-18T09:45:05.429Z,11.90
2018-03-18T09:46:05.574Z,13.20
2018-03-18T09:47:05.720Z,13.60
2018-03-18T09:48:05.864Z,13.30
2018-03-18T09:49:05.997Z,14.90
2018-03-18T09:50:06.156Z,13.90
2018-03-18T09:51:06.281Z,14.70
2018-03-18T09:52:06.419Z,14.20
2018-03-18T09:53:06.563Z,15.40
2018-03-18T09:54:06.707Z,12.40
2018-03-18T09:55:06.858Z,13.30
2018-03-18T09:56:06.992Z,13.20
2018-03-18T09:57:07.134Z,13.20
2018-03-18T09:58:07.288Z,12.30
2018-03-18T09:59:07.423Z,17.20
2018-03-18T10:00:07.589Z,16.30
2018-03-18T10:01:07.719Z,15.00
2018-03-18T10:02:07.842Z,16.60
2018-03-18T10:03:07.976Z,14.00
2018-03-18T10:04:08.121Z,11.90
2018-03-18T10:05:08.290Z,13.60
2018-03-18T10:06:08.406Z,14.10
2018-03-18T10:07:08.593Z,15.30
2018-03-18T10:08:08.699Z,12.70
2018-03-18T10:09:08.826Z,12.20
2018-03-18T10:10:08.964Z,13.30
2018-03-18T10:11:09.103Z,10.80
2018-03-18T10:12:09.239Z,12.30
2018-03-18T10:13:09.421Z,12.60
2018-03-18T10:14:09.559Z,13.80
2018-03-18T10:15:09.716Z,15.60
2018-03-18T10:16:09.871Z,13.20
2018-03-18T10:17:09.972Z,12.00
2018-03-18T10:18:10.104Z,15.20
2018-03-18T10:19:10.313Z,12.40
2018-03-18T10:20:10.347Z,12.70
2018-03-18T10:21:10.516Z,16.40
2018-03-18T10:22:10.658Z,14.00
2018-03-18T10:23:10.831Z,14.70
2018-03-18T10:24:11.011Z,16.30
2018-03-18T10:25:11.138Z,13.20
2018-03-18T10:26:11.274Z,14.10
2018-03-18T10:27:11.442Z,12.60
2018-03-18T10:28:11.563Z,12.90
2018-03-18T10:29:11.714Z,12.80
2018-03-18T10:30:11.856Z,12.70
2018-03-18T10:31:12.051Z,12.10
2018-03-18T10:32:12.120Z,10.90
2018-03-18T10:33:12.293Z,12.40
2018-03-18T10:34:12.505Z,13.60
2018-03-18T10:35:12.641Z,12.70
2018-03-18T10:36:12.609Z,11.70
2018-03-18T10:37:12.764Z,11.90
2018-03-18T10:38:12.943Z,12.40
2018-03-18T10:39:13.138Z,10.70
2018-03-18T10:40:13.269Z,12.40
2018-03-18T10:41:13.363Z,11.30
2018-03-18T10:42:13.557Z,12.40
2018-03-18T10:43:25.191Z,14.40
2018-03-18T10:44:13.825Z,16.30
2018-03-18T10:45:14.013Z,12.30
2018-03-18T10:46:14.190Z,13.00
2018-03-18T10:47:14.295Z,13.00
2018-03-18T10:48:14.422Z,13.30
2018-03-18T10:49:14.528Z,11.80
2018-03-18T10:50:14.662Z,11.80
2018-03-18T10:51:14.803Z,12.60
2018-03-18T10:52:14.946Z,11.60
2018-03-18T10:53:15.090Z,13.00
2018-03-18T10:54:15.232Z,11.50
2018-03-18T10:55:15.379Z,10.60
2018-03-18T10:56:15.533Z,10.20
2018-03-18T10:57:15.692Z,14.40
2018-03-18T10:58:15.803Z,12.30
2018-03-18T10:59:15.950Z,13.30
2018-03-18T11:00:16.096Z,13.80
2018-03-18T11:01:16.229Z,11.80
2018-03-18T11:02:16.377Z,12.40
2018-03-18T11:03:16.513Z,11.50
2018-03-18T11:04:16.690Z,15.00
2018-03-18T11:05:16.802Z,14.70
2018-03-18T11:06:16.973Z,13.20
2018-03-18T11:07:17.110Z,14.10
2018-03-18T11:08:17.287Z,12.60
2018-03-18T11:09:17.431Z,14.20
2018-03-18T11:10:17.591Z,15.00
2018-03-18T11:11:17.769Z,11.10
2018-03-18T11:12:17.898Z,12.50
2018-03-18T11:13:18.032Z,11.90
2018-03-18T11:14:18.192Z,13.10
2018-03-18T11:15:18.340Z,10.40
2018-03-18T11:16:18.493Z,12.00
2018-03-18T11:17:18.623Z,11.70
2018-03-18T11:18:18.769Z,12.50
2018-03-18T11:19:18.918Z,11.40
2018-03-18T11:20:19.070Z,13.10
2018-03-18T11:21:19.232Z,10.40
2018-03-18T11:22:19.388Z,12.90
2018-03-18T11:23:19.549Z,10.70
2018-03-18T11:24:19.681Z,11.70
2018-03-18T11:25:19.834Z,11.40
2018-03-18T11:26:20.036Z,11.00
2018-03-18T11:27:20.131Z,11.20
2018-03-18T11:28:20.261Z,10.40
2018-03-18T11:29:20.394Z,14.90
2018-03-18T11:30:20.562Z,13.80
2018-03-18T11:31:20.779Z,11.30
2018-03-18T11:32:20.801Z,13.40
2018-03-18T11:33:20.956Z,14.90
2018-03-18T11:34:21.126Z,12.50
2018-03-18T11:35:21.338Z,11.30
2018-03-18T11:36:21.387Z,10.10
2018-03-18T11:37:21.524Z,10.20
2018-03-18T11:38:21.706Z,12.50
2018-03-18T11:39:21.849Z,13.20
2018-03-18T11:40:22.018Z,11.90
2018-03-18T11:41:22.230Z,14.10
2018-03-18T11:42:22.371Z,12.60
2018-03-18T11:43:22.527Z,13.20
2018-03-18T11:44:22.671Z,11.50
2018-03-18T11:45:22.806Z,12.40
2018-03-18T11:46:22.953Z,11.10
2018-03-18T11:47:23.330Z,11.00
2018-03-18T11:48:23.309Z,10.80
2018-03-18T11:49:23.475Z,11.60
2018-03-18T11:50:23.676Z,13.00
2018-03-18T11:51:23.705Z,13.20
2018-03-18T11:52:23.852Z,11.30
2018-03-18T11:53:24.069Z,11.20
2018-03-18T11:54:24.229Z,11.80
2018-03-18T11:55:24.296Z,11.70
2018-03-18T11:56:24.448Z,11.60
2018-03-18T11:57:24.616Z,10.40
2018-03-18T11:58:24.811Z,12.10
2018-03-18T11:59:25.018Z,12.30
2018-03-18T12:00:25.165Z,12.70
2018-03-18T12:01:25.360Z,11.90
2018-03-18T12:02:25.511Z,10.40
2018-03-18T12:03:25.667Z,10.10
2018-03-18T12:04:25.919Z,11.20
2018-03-18T12:05:25.941Z,11.50
2018-03-18T12:06:26.127Z,9.80
2018-03-18T12:07:26.247Z,10.20
2018-03-18T12:08:26.630Z,11.50
2018-03-18T12:09:26.541Z,10.10
2018-03-18T12:10:26.789Z,10.50
2018-03-18T12:11:26.810Z,10.50
2018-03-18T12:12:27.024Z,12.00
2018-03-18T12:13:27.053Z,10.40
2018-03-18T12:14:27.215Z,9.20
2018-03-18T12:15:27.413Z,12.30
2018-03-18T12:16:27.552Z,9.50
2018-03-18T12:17:27.689Z,10.80
2018-03-18T12:18:27.870Z,11.00
2018-03-18T12:19:28.069Z,9.50
2018-03-18T12:20:28.155Z,11.80
2018-03-18T12:21:28.326Z,11.30
2018-03-18T12:22:28.483Z,8.50
2018-03-18T12:23:28.637Z,10.20
2018-03-18T12:24:28.767Z,11.60
2018-03-18T12:25:28.898Z,11.90
2018-03-18T12:26:29.038Z,11.90
2018-03-18T12:27:29.191Z,11.40
2018-03-18T12:28:29.375Z,12.90
2018-03-18T12:29:29.512Z,11.70
2018-03-18T12:30:29.673Z,10.00
2018-03-18T12:31:29.836Z,9.50
2018-03-18T12:32:29.983Z,11.80
2018-03-18T12:33:30.151Z,10.40
2018-03-18T12:34:30.282Z,9.80
2018-03-18T12:35:30.453Z,9.10
2018-03-18T12:36:30.710Z,10.70
2018-03-18T12:37:30.732Z,11.70
2018-03-18T12:38:30.959Z,11.50
2018-03-18T12:39:30.993Z,9.20
2018-03-18T12:40:31.138Z,10.20
2018-03-18T12:41:31.302Z,10.80
2018-03-18T12:42:31.621Z,12.80
2018-03-18T12:43:31.613Z,8.90
2018-03-18T12:44:31.770Z,11.70
2018-03-18T12:45:31.931Z,10.20
2018-03-18T12:46:32.137Z,11.30
2018-03-18T12:47:32.238Z,8.60
2018-03-18T12:48:32.350Z,9.40
2018-03-18T12:49:32.469Z,13.00
2018-03-18T12:50:32.593Z,10.00
2018-03-18T12:51:32.651Z,10.00
2018-03-18T12:52:32.810Z,10.00
2018-03-18T12:53:33.115Z,8.20
2018-03-18T12:54:33.290Z,12.30
2018-03-18T12:55:33.353Z,10.40